ADDS METAR Data INFO
IDs: Format: Raw Decoded Include TAF

Data at: 2335 UTC 15 Dec 2017

PASI 152253Z 10005KT 10SM BKN030 OVC038 04/03 A3003 RMK AO2 SLP170 T00390033
PASI 152153Z 11005KT 10SM FEW015 BKN140 04/03 A3003 RMK AO2 SLP170 T00390028
PASI 152053Z 12004KT 10SM SCT017 04/03 A3001 RMK AO2 SLP161 60000 T00390033 53011
PASI 151953Z 11006KT 10SM SCT019 03/03 A2999 RMK AO2 RAB06E07 SLP157 P0000 T00330028
PASI 151853Z 11004KT 10SM BKN020 03/03 A2998 RMK AO2 RAE1756B24E36 SLP150 P0000 T00280028
PASI 151829Z 09004KT 10SM -RA BKN021 OVC029 03/03 A2997 RMK AO2 RAE1756B24 P0000 T00280028
PASI 151753Z 13008KT 10SM -RA FEW020 OVC034 03/03 A2997 RMK AO2 RAE1658B07 SLP147 P0001 60021 T00330028 10050 20028 53011
PASI 151705Z 09008KT 10SM FEW016 BKN038 OVC080 03/02 A2994 RMK AO2 RAE1658 P0000 T00280022
PASI 151653Z 10009KT 10SM -RA SCT017 BKN028 OVC044 03/03 A2994 RMK AO2 RAB1555 SLP139 P0006 T00330028
PASI 151649Z 10008KT 10SM -RA FEW017 SCT022 OVC030 03/03 A2994 RMK AO2 RAB1555 P0006
PASI 151553Z 10005KT 10SM BKN015 OVC021 03/03 A2993 RMK AO2 RAE20 SLP136 P0003 T00330028
PASI 151453Z 09010KT 5SM -RA BR OVC015 04/03 A2994 RMK AO2 RAB04E15B51 SLP137 P0003 60011 T00390028 55004
PASI 151433Z 11006KT 10SM OVC015 04/03 A2993 RMK AO2 RAB04E15 P0000 T00390028
PASI 151420Z 12004KT 10SM BKN014 BKN022 OVC030 04/03 A2993 RMK AO2 RAB04E15 P0000 T00390033
PASI 151353Z 08005KT 10SM SCT015 OVC028 04/03 A2994 RMK AO2 RAE52 SLP136 P0003 T00390028
PASI 151253Z 12010KT 4SM -RA BR OVC020 04/03 A2994 RMK AO2 RAB35 SLP138 P0005 T00440033
PASI 151153Z 18003KT 10SM FEW016 BKN024 OVC032 04/03 A2995 RMK AO2 RAB05E51PLB29E44 SLP141 P0004 60008 70033 T00440028 10061 20044 56002
PASI 151150Z 00000KT 10SM -RA FEW016 BKN024 OVC033 04/03 A2995 RMK AO2 RAB05PLB29E44 P0004
PASI 151135Z 00000KT 5SM PLRA BR BKN024 OVC029 04/03 A2995 RMK AO2 RAB05PLB29 P0003 T00440028
PASI 151121Z 11008KT 10SM -RA BKN027 OVC045 05/03 A2995 RMK AO2 RAB05 P0000 T00500028
PASI 151053Z 16014G19KT 10SM SCT027 BKN035 OVC060 06/03 A2995 RMK AO2 RAB04E29 SLP142 P0000 T00560028
PASI 151003Z 16009KT 10SM FEW022 BKN040 OVC047 06/03 A2996 RMK AO2 T00560033
PASI 150953Z 19010G17KT 10SM SCT022 BKN029 OVC044 06/03 A2995 RMK AO2 SLP143 T00610033
PASI 150943Z 18009KT 10SM SCT022 BKN029 OVC046 06/03 A2996 RMK AO2 T00610033
PASI 150853Z 16008KT 10SM SCT040 BKN049 06/03 A2996 RMK AO2 RAB03E11 SLP144 P0000 60004 T00560033 400940039 56004
PASI 150753Z 22010KT 10SM SCT025 BKN043 OVC110 06/03 A2996 RMK AO2 WSHFT 0731 RAB35E51 SLP145 P0000 T00560028
PASI 150751Z 22010KT 10SM SCT025 BKN043 OVC070 06/02 A2996 RMK AO2 WSHFT 0731 RAB35E51 P0000
PASI 150736Z 23016G22KT 8SM -RA SCT022 BKN027 OVC047 06/03 A2996 RMK AO2 RAB35 P0000 T00560033
PASI 150653Z 21010KT 10SM FEW019 BKN030 OVC047 06/04 A2997 RMK AO2 RAB16E45 SLP148 P0004 T00560039
PASI 150645Z 22014G24KT 10SM SCT021 BKN030 OVC045 06/04 A2997 RMK AO2 RAB16E45 P0004 T00560039
PASI 150628Z 8SM -RA SCT019 BKN025 OVC055 05/04 A2997 RMK AO2 RAB16 P0001 T00500039
PASI 150602Z 16007KT 10SM SCT027 SCT045 BKN060 05/03 A2996 RMK AO2 T00500028
PASI 150553Z 15004KT 10SM BKN025 BKN045 OVC090 04/03 A2996 RMK AO2 WSHFT 0526 RAB35E52PLB38E41 SLP146 P0003 60008 T00440028 10078 20039 58001
PASI 150542Z 19008G24KT 4SM +RA BR FEW019 BKN029 OVC070 04/02 A2997 RMK AO2 WSHFT 0526 RAB35PLB38E41 P0003 T00440022
PASI 150540Z 21011G24KT 4SM -PLRA BR FEW019 BKN045 OVC090 05/03 A2997 RMK AO2 WSHFT 0526 RAB35PLB38 P0003 T00500033
PASI 150453Z 15006KT 10SM FEW026 SCT035 BKN049 06/03 A2997 RMK AO2 RAB10E36PLB18E24 SLP147 P0002 T00560033
PASI 150353Z 19014G23KT 10SM FEW023 BKN039 OVC090 07/04 A2996 RMK AO2 RAB45E47PLB36E45 SLP146 P0001 T00670039
PASI 150351Z 19017G23KT 10SM FEW021 BKN043 OVC090 07/04 A2996 RMK AO2 RAB45E47PLB36E45 P0001
PASI 150336Z 18010KT 150V210 6SM PL BKN029 BKN035 OVC042 07/03 A2996 RMK AO2 PLB36 P0001 T00670033
PASI 150253Z 17008KT 9SM FEW027 BKN038 OVC049 07/04 A2997 RMK AO2 SLP148 60002 T00670039 53003
PASI 150216Z 17008KT 10SM FEW022 BKN041 OVC048 07/04 A2997 RMK AO2 T00670044
PASI 150153Z 17009KT 10SM BKN022 BKN031 OVC041 07/04 A2996 RMK AO2 SLP146 T00670039
PASI 150136Z 17011KT 10SM BKN023 OVC037 07/04 A2996 RMK AO2 T00670039
PASI 150053Z 20009G20KT 7SM FEW021 BKN033 BKN048 06/03 A2996 RMK AO2 RAB39E42B48E51PLB42E48 SLP146 P0002 T00610033
PASI 150048Z 20012G21KT 5SM -RA FEW020 BKN033 OVC050 07/03 A2996 RMK AO2 RAB39E42B48PLB42E48 P0002
PASI 150042Z 20014G21KT 4SM PL FEW018 BKN029 OVC048 07/04 A2996 RMK AO2 RAB39E42PLB42 P0002 T00670039
PASI 142353Z 19013G18KT 10SM FEW030 OVC041 08/04 A2996 RMK AO2 SLP145 60004 T00780039 10078 20067 53014
PASI 142325Z 19012KT 9SM FEW024 SCT029 OVC040 08/04 A2995 RMK AO2 T00780039
PASI 142253Z 19014KT 9SM SCT024 BKN029 OVC046 08/05 A2994 RMK AO2 PK WND 22027/2227 RAB2158E10 SLP138 P0001 T00780050
PASI 142153Z 19009KT 9SM BKN018 BKN025 OVC035 07/06 A2992 RMK AO2 RAB2055E30 SLP131 P0000 T00720056
PASI 142104Z 19014G19KT 7SM -RA FEW014 BKN021 OVC038 07/06 A2992 RMK AO2 RAB2055 P0000 T00720056
PASI 142053Z 19009KT 7SM SCT022 OVC036 07/06 A2992 RMK AO2 RAB13E41 SLP131 P0001 60003 T00720056 51039
PASI 142039Z 19012G24KT 10SM -RA BKN030 OVC037 07/06 A2992 RMK AO2 RAB13 P0001 T00720056
PASI 141953Z 18014KT 8SM FEW013 BKN019 OVC041 08/06 A2989 RMK AO2 RAE10 SLP122 P0001 T00780061 $
PASI 141937Z 19014G24KT 9SM FEW013 BKN018 OVC024 07/06 A2988 RMK AO2 RAE10 P0001 T00720061 $
PASI 141907Z 16015G20KT 3SM -RA BR OVC013 07/07 A2986 RMK AO2 P0001 T00720067 $
PASI 141902Z 17012KT 1 1/2SM -RA BR OVC011 07/07 A2986 RMK AO2 P0001 T00720067 $
PASI 141853Z 18013G21KT 2 1/2SM -RA BR BKN013 OVC018 07/06 A2985 RMK AO2 PK WND 19032/1805 SLP108 P0001 T00720061 $
PASI 141825Z 18016G25KT 3SM -RA BR FEW009 BKN015 OVC021 08/07 A2983 RMK AO2 PK WND 19032/1805 P0001 T00780067 $
PASI 141820Z 19017G28KT 2 1/2SM -RA BR BKN013 OVC021 07/07 A2983 RMK AO2 PK WND 19032/1805 P0001 T00720067 $
PASI 141753Z 18014G26KT 3SM -RA BR SCT009 OVC015 08/07 A2980 RMK AO2 PK WND 20034/1704 SLP091 P0008 60013 T00780072 10094 20078 53032 $
PASI 141744Z 18019G27KT 2 1/2SM -RA BR FEW009 OVC015 08/07 A2979 RMK AO2 PK WND 20034/1704 P0008 T00780072 $
PASI 141731Z 18014G26KT 2 1/2SM -RA BR FEW010 BKN015 OVC029 08/07 A2978 RMK AO2 PK WND 20034/1704 PRESRR P0006 T00780072 $
PASI 141722Z 18017G28KT 2SM -RA BR FEW009 BKN013 OVC021 08/07 A2977 RMK AO2 PK WND 20034/1704 P0005 T00780072 $
PASI 141707Z 18020G34KT 2 1/2SM -RA BR FEW014 BKN019 OVC024 08/08 A2976 RMK AO2 PK WND 20034/1704 PRESRR P0002 T00830078 $
PASI 141653Z 16018G23KT 3SM -RA BR BKN018 OVC025 09/08 A2973 RMK AO2 SLP069 P0004 T00890078 $
PASI 141553Z 11016G22KT 5SM -RA BR FEW016 OVC029 08/07 A2970 RMK AO2 SLP059 P0000 T00830072 $
PASI 141551Z 12014KT 5SM -RA BR FEW016 SCT025 OVC029 08/07 A2971 RMK AO2 P0000 $
PASI 141453Z 12015KT 10SM -RA OVC032 09/06 A2970 RMK AO2 PK WND 10026/1412 SLP058 P0000 60001 T00890061 56017 $
PASI 141353Z 11018G26KT 10SM -RA FEW022 OVC034 09/06 A2971 RMK AO2 PK WND 11027/1339 RAE26B42 SLP059 P0001 T00890056 $
PASI 141253Z 11017KT 10SM -RA OVC038 09/06 A2973 RMK AO2 PK WND 11027/1224 RAE21B37 SLP066 P0000 T00890056 $
PASI 141153Z 11018G26KT 10SM -RA OVC040 09/06 A2975 RMK AO2 PK WND 10028/1140 SLP074 P0004 60033 70081 T00890061 10094 20083 56029 $